Time;durP1;ratioP1;P1;durP2;ratioP2;P2;SDS_P1;SDS_P2;PMS_P1;PMS_P2;Temp;Humidity;BMP_temperature;BMP_pressure;BME280_temperature;BME280_humidity;BME280_pressure;Samples;Min_cycle;Max_cycle;Signal;HPM_P1;HPM_P2
2022/02/15 00:02:25;;;;;;;11.98;1.92;;;26.30;99.90;;;;;;5011739;28;20099;-67
2022/02/15 00:04:59;;;;;;;12.15;1.90;;;26.20;99.90;;;;;;5012303;28;20486;-65
2022/02/15 00:07:27;;;;;;;13.68;2.85;;;26.50;99.90;;;;;;5020237;28;20433;-65
2022/02/15 00:09:57;;;;;;;9.75;2.55;;;26.70;99.90;;;;;;5016837;28;20406;-66
2022/02/15 00:12:25;;;;;;;16.85;1.88;;;26.70;99.90;;;;;;5028466;28;20055;-65
2022/02/15 00:14:52;;;;;;;12.60;2.03;;;26.50;99.90;;;;;;5031451;28;20032;-66
2022/02/15 00:17:20;;;;;;;12.95;2.33;;;26.50;99.90;;;;;;5006986;28;20057;-66
2022/02/15 00:19:47;;;;;;;10.85;2.05;;;26.60;99.90;;;;;;5014559;28;20444;-65
2022/02/15 00:22:18;;;;;;;12.98;2.45;;;26.80;99.90;;;;;;5011794;28;20364;-65
2022/02/15 00:24:45;;;;;;;15.15;3.00;;;26.80;99.90;;;;;;5008844;28;20402;-66
2022/02/15 00:27:13;;;;;;;10.18;2.33;;;27.10;99.90;;;;;;5014577;28;20129;-66
2022/02/15 00:29:40;;;;;;;13.52;2.40;;;27.20;99.90;;;;;;5013334;28;20057;-65
2022/02/15 00:32:08;;;;;;;11.02;2.17;;;27.20;99.90;;;;;;5014221;28;20521;-65
2022/02/15 00:34:35;;;;;;;10.20;1.83;;;27.10;99.90;;;;;;5012346;28;20065;-66
2022/02/15 00:37:04;;;;;;;15.60;2.72;;;26.90;99.90;;;;;;5014356;28;20028;-66
2022/02/15 00:39:31;;;;;;;13.23;1.83;;;26.80;99.90;;;;;;5012372;28;20022;-66
2022/02/15 00:41:59;;;;;;;17.45;2.60;;;27.10;99.90;;;;;;5014497;28;20050;-66
2022/02/15 00:44:31;;;;;;;10.80;2.28;;;27.00;99.90;;;;;;5008063;28;20084;-65
2022/02/15 00:47:02;;;;;;;15.23;2.55;;;27.30;99.90;;;;;;5018463;28;20592;-65
2022/02/15 00:49:29;;;;;;;14.90;3.00;;;27.50;99.90;;;;;;5011124;28;20040;-65
2022/02/15 00:51:57;;;;;;;18.90;3.38;;;27.20;99.90;;;;;;4996375;28;20029;-65
2022/02/15 00:54:25;;;;;;;16.63;2.85;;;27.20;99.90;;;;;;5013609;28;20040;-65
2022/02/15 00:56:52;;;;;;;12.20;2.40;;;27.10;99.90;;;;;;5014494;28;20034;-65
2022/02/15 00:59:19;;;;;;;15.05;2.80;;;27.30;99.90;;;;;;5014555;28;20045;-65
2022/02/15 01:01:47;;;;;;;16.13;2.92;;;27.30;99.90;;;;;;5014662;28;20029;-65
2022/02/15 01:04:14;;;;;;;18.38;2.78;;;27.20;99.90;;;;;;5013919;28;20026;-65
2022/02/15 01:06:41;;;;;;;14.05;1.90;;;27.30;99.90;;;;;;5012572;28;20030;-65
2022/02/15 01:09:09;;;;;;;18.25;2.53;;;27.30;99.90;;;;;;5013740;28;20026;-65
2022/02/15 01:11:38;;;;;;;18.50;2.55;;;27.30;99.90;;;;;;5012960;28;20022;-65
2022/02/15 01:14:06;;;;;;;13.45;3.13;;;27.40;99.90;;;;;;5007849;28;20080;-65
2022/02/15 01:16:33;;;;;;;11.02;1.67;;;27.40;99.90;;;;;;5012552;28;20142;-65
2022/02/15 01:19:00;;;;;;;13.85;2.03;;;27.40;99.90;;;;;;5012022;28;20125;-65
2022/02/15 01:21:27;;;;;;;10.25;2.72;;;27.40;99.90;;;;;;5010996;28;20041;-65
2022/02/15 01:23:55;;;;;;;16.85;2.13;;;27.60;99.90;;;;;;5007538;28;20022;-66
2022/02/15 01:26:22;;;;;;;13.10;2.83;;;27.60;99.90;;;;;;5010552;28;20033;-66
2022/02/15 01:28:49;;;;;;;11.70;2.50;;;27.50;99.90;;;;;;5009103;28;20524;-65
2022/02/15 01:31:17;;;;;;;16.38;3.03;;;27.50;99.90;;;;;;5013255;28;20480;-65
2022/02/15 01:33:44;;;;;;;11.30;1.95;;;27.60;99.90;;;;;;5001879;28;20494;-65
2022/02/15 01:36:11;;;;;;;11.90;2.38;;;27.80;99.90;;;;;;5009548;28;20040;-65
2022/02/15 01:38:39;;;;;;;14.98;2.25;;;27.80;99.90;;;;;;5013486;28;20115;-66
2022/02/15 01:41:07;;;;;;;12.20;2.22;;;28.00;99.90;;;;;;5010014;28;20026;-65
2022/02/15 01:43:43;;;;;;;12.90;2.45;;;28.00;99.90;;;;;;5003397;28;20588;-65
2022/02/15 01:46:11;;;;;;;13.32;2.92;;;28.30;99.90;;;;;;5016170;28;20049;-65
2022/02/15 01:48:43;;;;;;;14.50;2.38;;;28.10;99.90;;;;;;5013300;28;20021;-66
2022/02/15 01:51:11;;;;;;;15.15;2.25;;;28.10;99.90;;;;;;5012604;28;20033;-65
2022/02/15 01:53:41;;;;;;;7.95;1.60;;;28.20;99.90;;;;;;5014936;28;20048;-66
2022/02/15 01:56:10;;;;;;;11.45;2.38;;;28.00;99.90;;;;;;5030065;28;20038;-66
2022/02/15 01:58:51;;;;;;;15.32;2.55;;;28.20;99.90;;;;;;5011863;28;20057;-66
2022/02/15 02:01:21;;;;;;;12.70;2.50;;;27.90;99.90;;;;;;5011851;28;20041;-66
2022/02/15 02:03:49;;;;;;;17.20;2.83;;;28.00;99.90;;;;;;5010137;28;20045;-65
2022/02/15 02:06:16;;;;;;;16.35;2.78;;;28.30;99.90;;;;;;5013518;28;20045;-65
2022/02/15 02:08:44;;;;;;;12.15;2.25;;;28.10;99.90;;;;;;5007976;28;20018;-65
2022/02/15 02:11:12;;;;;;;11.30;1.83;;;28.10;99.90;;;;;;5011565;28;20651;-66
2022/02/15 02:13:39;;;;;;;13.93;2.08;;;27.90;99.90;;;;;;5010460;28;20030;-65
2022/02/15 02:16:07;;;;;;;7.90;1.38;;;28.10;99.90;;;;;;5009518;28;20069;-65
2022/02/15 02:18:38;;;;;;;13.10;2.22;;;27.80;99.90;;;;;;5005217;28;20054;-66
2022/02/15 02:21:06;;;;;;;9.40;1.95;;;28.10;99.90;;;;;;5014359;28;20025;-65
2022/02/15 02:23:34;;;;;;;10.45;1.88;;;28.10;99.90;;;;;;5023342;28;20379;-65
2022/02/15 02:26:02;;;;;;;13.77;2.60;;;28.30;99.90;;;;;;5003069;28;20029;-66
2022/02/15 02:28:32;;;;;;;8.93;2.00;;;28.40;99.90;;;;;;5009879;28;20030;-65
2022/02/15 02:31:02;;;;;;;11.70;2.53;;;28.20;99.90;;;;;;5007847;28;20040;-65
2022/02/15 02:33:30;;;;;;;9.65;2.25;;;28.10;99.90;;;;;;5010341;28;20465;-65
2022/02/15 02:36:01;;;;;;;11.80;2.70;;;28.00;99.90;;;;;;5010850;28;20500;-65
2022/02/15 02:38:28;;;;;;;11.00;1.98;;;27.80;99.90;;;;;;5011520;28;20018;-65
2022/02/15 02:40:56;;;;;;;10.40;2.50;;;27.90;99.90;;;;;;5016071;28;20034;-65
2022/02/15 02:43:25;;;;;;;10.80;2.30;;;28.10;99.90;;;;;;5004564;28;20553;-64
2022/02/15 02:45:52;;;;;;;8.75;1.70;;;28.30;99.90;;;;;;4997606;28;20118;-65
2022/02/15 02:48:20;;;;;;;14.43;2.47;;;28.30;99.90;;;;;;5014077;28;20072;-64
2022/02/15 02:50:47;;;;;;;10.65;1.90;;;28.20;99.90;;;;;;5011638;28;20063;-64
2022/02/15 02:53:18;;;;;;;10.63;2.30;;;28.20;99.90;;;;;;5010426;28;20026;-65
2022/02/15 02:55:45;;;;;;;13.95;1.98;;;28.00;99.90;;;;;;5027503;28;20034;-64
2022/02/15 02:58:12;;;;;;;11.40;1.98;;;28.00;99.90;;;;;;5010500;28;20437;-64
2022/02/15 03:00:43;;;;;;;11.10;2.13;;;28.20;99.90;;;;;;5010961;28;20021;-64
2022/02/15 03:03:13;;;;;;;13.70;2.38;;;28.40;99.90;;;;;;5005746;28;20045;-64
2022/02/15 03:05:40;;;;;;;17.30;2.70;;;28.20;99.90;;;;;;5008031;28;20069;-64
2022/02/15 03:08:07;;;;;;;15.60;2.80;;;28.20;99.90;;;;;;5003961;28;20507;-64
2022/02/15 03:10:35;;;;;;;14.55;2.30;;;28.30;99.90;;;;;;4996124;28;20367;-64
2022/02/15 03:13:02;;;;;;;13.85;1.98;;;28.20;99.90;;;;;;5011831;28;20034;-63
2022/02/15 03:15:29;;;;;;;13.32;2.40;;;28.40;99.90;;;;;;5014375;28;20385;-63
2022/02/15 03:18:12;;;;;;;13.20;2.65;;;28.70;99.90;;;;;;5010630;28;20041;-64
2022/02/15 03:20:39;;;;;;;10.15;1.73;;;28.40;99.90;;;;;;5013405;28;20036;-64
2022/02/15 03:23:11;;;;;;;11.93;1.80;;;28.00;99.90;;;;;;5011041;28;20034;-64
2022/02/15 03:25:38;;;;;;;11.43;1.48;;;27.80;99.90;;;;;;5013681;28;20048;-65
2022/02/15 03:28:08;;;;;;;19.30;2.92;;;27.60;99.90;;;;;;5016083;28;20052;-66
2022/02/15 03:30:36;;;;;;;17.02;2.33;;;27.80;99.90;;;;;;5017598;28;20080;-65
2022/02/15 03:33:03;;;;;;;11.57;2.60;;;28.00;99.90;;;;;;5010815;28;20025;-65
2022/02/15 03:35:30;;;;;;;15.50;2.47;;;28.10;99.90;;;;;;5018528;28;20074;-63
2022/02/15 03:37:58;;;;;;;15.02;2.28;;;27.90;99.90;;;;;;5014017;28;20033;-63
2022/02/15 03:43:04;;;;;;;10.07;1.60;;;27.80;99.90;;;;;;5009273;28;20046;-63
2022/02/15 03:43:12;;;;;;;12.60;2.10;;;27.90;99.90;;;;;;5010059;28;20432;-64
2022/02/15 03:45:39;;;;;;;11.70;1.88;;;27.90;99.90;;;;;;5012154;28;20058;-64
2022/02/15 03:48:07;;;;;;;10.27;1.67;;;27.70;99.90;;;;;;5013163;28;20123;-64
2022/02/15 03:50:35;;;;;;;12.90;2.65;;;27.60;99.90;;;;;;5011727;28;20105;-63
2022/02/15 03:53:02;;;;;;;13.88;1.92;;;27.40;99.90;;;;;;5007529;28;20117;-64
2022/02/15 03:55:30;;;;;;;8.05;1.67;;;27.40;99.90;;;;;;5012682;28;20029;-64
2022/02/15 03:57:57;;;;;;;10.95;1.98;;;27.30;99.90;;;;;;5015644;28;20493;-65
2022/02/15 04:00:25;;;;;;;16.35;1.88;;;27.40;99.90;;;;;;5009565;28;20080;-64
2022/02/15 04:02:55;;;;;;;12.48;1.88;;;27.40;99.90;;;;;;5022830;28;20096;-64
2022/02/15 04:05:23;;;;;;;14.43;2.08;;;27.50;99.90;;;;;;5013932;28;20057;-64
2022/02/15 04:07:51;;;;;;;10.30;1.67;;;27.40;99.90;;;;;;5000396;28;20054;-65
2022/02/15 04:10:19;;;;;;;10.45;1.92;;;27.10;99.90;;;;;;5019352;28;20108;-64
2022/02/15 04:12:48;;;;;;;14.63;2.03;;;26.80;99.90;;;;;;5010896;28;20491;-63
2022/02/15 04:15:16;;;;;;;9.50;2.28;;;26.90;99.90;;;;;;5015531;28;20033;-64
2022/02/15 04:17:44;;;;;;;16.25;2.65;;;27.00;99.90;;;;;;5020383;28;20045;-65
2022/02/15 04:20:14;;;;;;;17.85;2.50;;;26.90;99.90;;;;;;5012032;28;20034;-65
2022/02/15 04:22:42;;;;;;;12.35;2.67;;;26.80;99.90;;;;;;5013355;28;20026;-64
2022/02/15 04:25:10;;;;;;;12.98;2.63;;;26.50;99.90;;;;;;5015024;28;20040;-64
2022/02/15 04:27:39;;;;;;;7.53;1.63;;;26.60;99.90;;;;;;5012084;28;20030;-65
2022/02/15 04:30:08;;;;;;;14.82;2.88;;;26.70;99.90;;;;;;5013256;28;20033;-65
2022/02/15 04:32:35;;;;;;;18.08;2.60;;;26.70;99.90;;;;;;5010125;28;20106;-65
2022/02/15 04:35:03;;;;;;;13.68;2.42;;;26.80;99.90;;;;;;5014654;28;20453;-65
2022/02/15 04:37:33;;;;;;;10.55;2.42;;;26.90;99.90;;;;;;5023840;28;20494;-64
2022/02/15 04:40:01;;;;;;;11.75;2.17;;;26.70;99.90;;;;;;5025448;28;20065;-65
2022/02/15 04:42:28;;;;;;;8.70;1.73;;;26.80;99.90;;;;;;5012211;28;20018;-65
2022/02/15 04:44:56;;;;;;;16.20;2.30;;;26.60;99.90;;;;;;5026918;28;20025;-66
2022/02/15 04:47:23;;;;;;;10.75;2.45;;;26.60;99.90;;;;;;5019309;28;20029;-65
2022/02/15 04:49:50;;;;;;;14.15;2.42;;;26.50;99.90;;;;;;5023488;28;20068;-65
2022/02/15 04:52:18;;;;;;;15.25;2.28;;;26.50;99.90;;;;;;5031434;28;20017;-64
2022/02/15 04:54:45;;;;;;;16.70;2.20;;;26.40;99.90;;;;;;5025431;28;20160;-65
2022/02/15 04:57:12;;;;;;;17.27;2.30;;;26.60;99.90;;;;;;5017228;28;20018;-64
2022/02/15 04:59:40;;;;;;;14.55;2.58;;;26.40;99.90;;;;;;5018319;28;20108;-65
2022/02/15 05:02:07;;;;;;;13.98;2.22;;;26.30;99.90;;;;;;5019189;28;20041;-64
2022/02/15 05:04:49;;;;;;;19.80;2.20;;;26.20;99.90;;;;;;5017663;28;20026;-65
2022/02/15 05:07:18;;;;;;;20.83;2.10;;;26.30;99.90;;;;;;5016998;28;20685;-65
2022/02/15 05:09:45;;;;;;;13.10;2.25;;;26.30;99.90;;;;;;5010558;28;20052;-67
2022/02/15 05:12:13;;;;;;;11.20;2.05;;;26.20;99.90;;;;;;5028078;28;20025;-65
2022/02/15 05:14:41;;;;;;;10.55;2.30;;;26.30;99.90;;;;;;5020202;28;20030;-65
2022/02/15 05:17:09;;;;;;;11.32;1.85;;;26.30;99.90;;;;;;5032086;28;20401;-65
2022/02/15 05:19:36;;;;;;;10.98;2.85;;;26.20;99.90;;;;;;5028401;28;20030;-65
2022/02/15 05:22:04;;;;;;;17.45;3.03;;;26.20;99.90;;;;;;5019391;28;20030;-65
2022/02/15 05:24:31;;;;;;;13.85;2.47;;;26.30;99.90;;;;;;5010537;28;20509;-65
2022/02/15 05:26:58;;;;;;;14.98;2.60;;;26.30;99.90;;;;;;5013497;28;20526;-65
2022/02/15 05:29:27;;;;;;;12.30;2.05;;;26.50;99.90;;;;;;5010148;28;20117;-65
2022/02/15 05:31:54;;;;;;;10.77;1.83;;;26.50;99.90;;;;;;5014389;28;20083;-65
2022/02/15 05:34:21;;;;;;;12.70;2.53;;;26.50;99.90;;;;;;5022675;28;20030;-65
2022/02/15 05:36:49;;;;;;;13.95;3.20;;;26.50;99.90;;;;;;5020685;28;20042;-65
2022/02/15 05:39:19;;;;;;;13.30;2.28;;;26.50;99.90;;;;;;5011815;28;20700;-65
2022/02/15 05:41:46;;;;;;;11.70;2.33;;;26.40;99.90;;;;;;5006817;28;20057;-65
2022/02/15 05:44:16;;;;;;;18.73;2.83;;;26.40;99.90;;;;;;5002342;28;20109;-66
2022/02/15 05:46:44;;;;;;;12.32;2.20;;;26.30;99.90;;;;;;5008352;28;20065;-64
2022/02/15 05:49:11;;;;;;;16.85;2.80;;;26.10;99.90;;;;;;5008060;28;20060;-64
2022/02/15 05:51:38;;;;;;;17.15;2.63;;;26.20;99.90;;;;;;5013227;28;20036;-64
2022/02/15 05:54:06;;;;;;;18.08;3.00;;;26.10;99.90;;;;;;5022407;28;20037;-64
2022/02/15 05:56:33;;;;;;;15.07;2.85;;;26.10;99.90;;;;;;5018914;28;20092;-63
2022/02/15 05:59:01;;;;;;;16.45;2.28;;;26.10;99.90;;;;;;5015250;28;20030;-64
2022/02/15 06:01:28;;;;;;;13.50;2.30;;;26.00;99.90;;;;;;5013443;28;20398;-63
2022/02/15 06:04:10;;;;;;;17.33;2.13;;;26.00;99.90;;;;;;5015951;28;20038;-63
2022/02/15 06:06:42;;;;;;;13.85;2.50;;;26.00;99.90;;;;;;4996102;28;20497;-64
2022/02/15 06:09:09;;;;;;;17.05;2.13;;;25.90;99.90;;;;;;5013144;28;20075;-64
2022/02/15 06:11:36;;;;;;;19.83;2.67;;;25.90;99.90;;;;;;5016144;28;20028;-63
2022/02/15 06:14:03;;;;;;;18.58;3.53;;;26.00;99.90;;;;;;5016548;28;20034;-63
2022/02/15 06:16:31;;;;;;;16.27;2.50;;;26.00;99.90;;;;;;5005890;28;20433;-65
2022/02/15 06:19:00;;;;;;;12.43;2.45;;;25.90;99.90;;;;;;5007104;28;20140;-65
2022/02/15 06:21:27;;;;;;;25.00;3.47;;;26.00;99.90;;;;;;5011790;28;20033;-65
2022/02/15 06:23:57;;;;;;;14.15;2.97;;;26.10;99.90;;;;;;5007063;28;20026;-65
2022/02/15 06:26:24;;;;;;;16.55;1.98;;;26.20;99.90;;;;;;5001081;28;20049;-65
2022/02/15 06:28:51;;;;;;;22.13;3.33;;;26.10;99.90;;;;;;5027051;28;20045;-62
2022/02/15 06:31:19;;;;;;;14.85;2.58;;;26.10;99.90;;;;;;5026558;28;20034;-62
2022/02/15 06:33:46;;;;;;;22.08;3.50;;;26.20;99.90;;;;;;5029979;28;20101;-62
2022/02/15 06:36:13;;;;;;;15.93;2.33;;;26.20;99.90;;;;;;5024337;28;20034;-61
2022/02/15 06:38:41;;;;;;;13.27;2.00;;;26.20;99.90;;;;;;5033740;28;20018;-62
2022/02/15 06:41:09;;;;;;;18.90;2.90;;;26.20;99.90;;;;;;5028534;28;20034;-61
2022/02/15 06:43:36;;;;;;;15.30;2.67;;;25.90;99.90;;;;;;5031629;28;20040;-62
2022/02/15 06:46:04;;;;;;;17.58;2.75;;;25.80;99.90;;;;;;5032218;28;20026;-63
2022/02/15 06:48:31;;;;;;;22.75;3.05;;;25.60;99.90;;;;;;5024665;28;20524;-62
2022/02/15 06:50:58;;;;;;;17.20;2.72;;;25.40;99.90;;;;;;5018200;28;20038;-61
2022/02/15 06:53:26;;;;;;;14.45;2.67;;;25.40;99.90;;;;;;5016424;28;20474;-62
2022/02/15 06:55:53;;;;;;;15.95;2.95;;;25.40;99.90;;;;;;5015922;28;20038;-62
2022/02/15 06:58:22;;;;;;;17.02;2.30;;;25.40;99.90;;;;;;5014693;28;20049;-62
2022/02/15 07:00:49;;;;;;;19.73;2.47;;;25.40;99.90;;;;;;5024952;28;20029;-63
2022/02/15 07:03:16;;;;;;;19.98;3.35;;;25.30;99.90;;;;;;5007440;28;20046;-62
2022/02/15 07:05:44;;;;;;;14.00;2.00;;;25.20;99.90;;;;;;5004328;28;20033;-63
2022/02/15 07:08:11;;;;;;;12.25;2.47;;;25.20;99.90;;;;;;5006996;28;20517;-63
2022/02/15 07:10:39;;;;;;;13.80;1.85;;;25.20;99.90;;;;;;4994954;28;20427;-63
2022/02/15 07:13:07;;;;;;;11.10;2.22;;;25.20;99.90;;;;;;4998706;28;20398;-63
2022/02/15 07:15:34;;;;;;;15.20;2.78;;;25.20;99.90;;;;;;5008919;28;20037;-63
2022/02/15 07:18:01;;;;;;;15.88;2.30;;;25.20;99.90;;;;;;5007388;28;20050;-64
2022/02/15 07:20:29;;;;;;;13.75;3.17;;;25.20;99.90;;;;;;5008822;28;20030;-64
2022/02/15 07:22:59;;;;;;;17.02;6.05;;;25.20;99.90;;;;;;5014034;28;20033;-64
2022/02/15 07:25:27;;;;;;;25.60;7.60;;;25.10;99.90;;;;;;5001780;28;20041;-63
2022/02/15 07:27:54;;;;;;;17.58;3.13;;;25.20;99.90;;;;;;4997946;28;20031;-63
2022/02/15 07:30:24;;;;;;;16.63;3.45;;;25.10;99.90;;;;;;5004254;28;20022;-63
2022/02/15 07:32:52;;;;;;;21.08;3.53;;;24.90;99.90;;;;;;5009605;28;20022;-64
2022/02/15 07:35:19;;;;;;;11.10;2.45;;;24.80;99.90;;;;;;5027265;28;20045;-64
2022/02/15 07:37:51;;;;;;;15.27;2.65;;;24.80;99.90;;;;;;5032132;28;20044;-64
2022/02/15 07:40:22;;;;;;;18.75;2.72;;;24.80;99.90;;;;;;5025049;28;20029;-64
2022/02/15 07:42:50;;;;;;;18.35;2.97;;;24.80;99.90;;;;;;4997176;28;20053;-64
2022/02/15 07:45:19;;;;;;;12.52;2.50;;;24.80;99.90;;;;;;5008828;28;20520;-64
2022/02/15 07:47:51;;;;;;;13.85;2.13;;;24.80;99.90;;;;;;5011570;28;20385;-64
2022/02/15 07:50:22;;;;;;;13.05;2.17;;;24.70;99.90;;;;;;5011463;28;20060;-64
2022/02/15 07:52:54;;;;;;;13.50;2.83;;;24.60;99.90;;;;;;5011597;28;20026;-64
2022/02/15 07:55:22;;;;;;;15.77;2.65;;;24.50;99.90;;;;;;5010783;28;20453;-64
2022/02/15 07:57:49;;;;;;;19.80;2.58;;;24.40;99.90;;;;;;5026449;28;20041;-64
2022/02/15 08:00:23;;;;;;;19.38;3.00;;;24.40;99.90;;;;;;5032007;28;20034;-64
2022/02/15 08:02:52;;;;;;;18.65;2.58;;;24.30;99.90;;;;;;5009841;28;20026;-64
2022/02/15 08:05:21;;;;;;;16.05;2.58;;;24.30;99.90;;;;;;5015168;28;20077;-64
2022/02/15 08:07:53;;;;;;;18.15;3.05;;;24.30;99.90;;;;;;5014709;28;20051;-64
2022/02/15 08:10:24;;;;;;;17.77;2.63;;;24.10;99.90;;;;;;5013305;28;20034;-64
2022/02/15 08:13:05;;;;;;;13.65;2.13;;;24.10;99.90;;;;;;5005414;28;20466;-64
2022/02/15 08:15:36;;;;;;;16.08;2.85;;;24.20;99.90;;;;;;5017167;28;20040;-64
2022/02/15 08:18:05;;;;;;;15.50;2.60;;;24.20;99.90;;;;;;5013163;28;20053;-64
2022/02/15 08:20:33;;;;;;;18.02;3.10;;;24.20;99.90;;;;;;4996498;28;20062;-64
2022/02/15 08:23:00;;;;;;;20.55;3.85;;;24.10;99.90;;;;;;5011663;28;20127;-63
2022/02/15 08:25:31;;;;;;;11.68;2.28;;;24.00;99.90;;;;;;5007340;28;20097;-64
2022/02/15 08:27:58;;;;;;;12.95;2.13;;;23.90;99.90;;;;;;5002188;28;20040;-64
2022/02/15 08:30:26;;;;;;;13.57;2.05;;;23.90;99.90;;;;;;5009313;28;20014;-64
2022/02/15 08:32:54;;;;;;;14.18;2.15;;;23.90;99.90;;;;;;5000506;28;20037;-64
2022/02/15 08:35:21;;;;;;;16.58;2.47;;;23.90;99.90;;;;;;5018810;28;20399;-64
2022/02/15 08:37:51;;;;;;;14.40;2.72;;;23.90;99.90;;;;;;5028425;28;20032;-64
2022/02/15 08:40:19;;;;;;;17.70;3.13;;;23.80;99.90;;;;;;5017166;28;20042;-64
2022/02/15 08:42:46;;;;;;;16.40;3.47;;;23.80;99.90;;;;;;5013670;28;20083;-64
2022/02/15 08:45:14;;;;;;;19.67;3.28;;;23.80;99.90;;;;;;5004337;28;20033;-62
2022/02/15 08:47:41;;;;;;;16.23;2.63;;;23.70;99.90;;;;;;5015493;28;20401;-63
2022/02/15 08:50:09;;;;;;;20.75;3.35;;;23.70;99.90;;;;;;5014334;28;20045;-65
2022/02/15 08:52:37;;;;;;;25.13;4.10;;;23.70;99.90;;;;;;5008616;28;20017;-65
2022/02/15 08:55:06;;;;;;;16.65;3.17;;;23.70;99.90;;;;;;5011393;28;20026;-65
2022/02/15 08:57:34;;;;;;;17.48;2.72;;;23.60;99.90;;;;;;4995655;28;20034;-65
2022/02/15 09:00:01;;;;;;;14.68;2.58;;;23.60;99.90;;;;;;5014967;28;20037;-65
2022/02/15 09:02:30;;;;;;;17.63;3.45;;;23.60;99.90;;;;;;4995228;28;20022;-65
2022/02/15 09:04:57;;;;;;;16.23;2.97;;;23.60;99.90;;;;;;5009192;28;20022;-65
2022/02/15 09:07:24;;;;;;;15.48;2.67;;;23.50;99.90;;;;;;5001511;28;20096;-65
2022/02/15 09:09:52;;;;;;;12.60;2.63;;;23.50;99.90;;;;;;5013702;28;20366;-65
2022/02/15 09:12:19;;;;;;;17.00;3.38;;;23.50;99.90;;;;;;5015769;28;20104;-65
2022/02/15 09:14:46;;;;;;;16.00;3.10;;;23.50;99.90;;;;;;5027929;28;20065;-65
2022/02/15 09:17:13;;;;;;;13.90;2.15;;;23.40;99.90;;;;;;4999207;28;20014;-65
2022/02/15 09:19:41;;;;;;;19.00;2.75;;;23.40;99.90;;;;;;5016718;28;20104;-63
2022/02/15 09:22:08;;;;;;;16.42;3.08;;;23.40;99.90;;;;;;5009988;28;20050;-63
2022/02/15 09:24:35;;;;;;;19.35;3.45;;;23.40;99.90;;;;;;5013311;28;20549;-63
2022/02/15 09:27:03;;;;;;;14.60;3.03;;;23.40;99.90;;;;;;5022124;28;20026;-63
2022/02/15 09:29:30;;;;;;;24.25;3.38;;;23.40;99.90;;;;;;5014995;28;20037;-63
2022/02/15 09:31:57;;;;;;;24.60;3.25;;;23.40;99.90;;;;;;5005583;28;20030;-65
2022/02/15 09:34:27;;;;;;;16.17;3.22;;;23.30;99.90;;;;;;5013940;28;20427;-66
2022/02/15 09:36:54;;;;;;;14.85;2.58;;;23.30;99.90;;;;;;5013618;28;20053;-63
2022/02/15 09:39:23;;;;;;;11.13;2.22;;;23.30;99.90;;;;;;5012516;28;20034;-64
2022/02/15 09:41:50;;;;;;;13.65;1.95;;;23.30;99.90;;;;;;5013211;28;20088;-64
2022/02/15 09:44:17;;;;;;;16.23;3.08;;;23.30;99.90;;;;;;5013377;28;20038;-64
2022/02/15 09:46:46;;;;;;;20.67;3.00;;;23.30;99.90;;;;;;5020662;28;20030;-64
2022/02/15 09:52:00;;;;;;;18.00;3.03;;;23.20;99.90;;;;;;5014007;28;20096;-64
2022/02/15 09:54:30;;;;;;;14.48;2.63;;;23.20;99.90;;;;;;5013828;28;20490;-64
2022/02/15 09:56:57;;;;;;;16.80;3.00;;;23.20;99.90;;;;;;5014442;28;20072;-64
2022/02/15 09:59:25;;;;;;;19.17;2.55;;;23.20;99.90;;;;;;5025219;28;20486;-64
2022/02/15 10:01:53;;;;;;;16.08;2.30;;;23.20;99.90;;;;;;5015479;28;20032;-64
2022/02/15 10:04:33;;;;;;;22.98;2.88;;;23.20;99.90;;;;;;5010930;28;20125;-65
2022/02/15 10:07:07;;;;;;;19.55;2.58;;;23.20;99.90;;;;;;5012740;28;20125;-65
2022/02/15 10:09:36;;;;;;;25.83;3.00;;;23.10;99.90;;;;;;5022701;28;20052;-65
2022/02/15 10:12:11;;;;;;;16.25;2.75;;;23.10;99.90;;;;;;5012672;28;20037;-65
2022/02/15 10:14:44;;;;;;;16.00;2.63;;;23.10;99.90;;;;;;5012202;28;20024;-65
2022/02/15 10:17:14;;;;;;;10.67;2.23;;;23.10;99.90;;;;;;5006162;28;20042;-65
2022/02/15 10:19:43;;;;;;;18.63;2.67;;;23.10;99.90;;;;;;5015485;28;20021;-65
2022/02/15 10:22:11;;;;;;;18.65;3.47;;;23.10;99.90;;;;;;5018784;28;20021;-65
2022/02/15 10:24:40;;;;;;;17.88;2.80;;;23.00;99.90;;;;;;5026833;28;20022;-65
2022/02/15 10:27:12;;;;;;;16.88;2.88;;;23.00;99.90;;;;;;5017194;28;20037;-64
2022/02/15 10:29:41;;;;;;;15.63;3.03;;;23.00;99.90;;;;;;5025349;28;20025;-64
2022/02/15 10:32:14;;;;;;;11.70;2.05;;;23.00;99.90;;;;;;5018880;28;20021;-64
2022/02/15 10:34:58;;;;;;;15.00;2.60;;;23.00;99.90;;;;;;5012675;28;20046;-64
2022/02/15 10:37:32;;;;;;;17.10;1.80;;;23.00;99.90;;;;;;5011929;28;22827;-64
2022/02/15 10:40:07;;;;;;;25.42;2.88;;;23.00;99.90;;;;;;5019768;28;20057;-64
2022/02/15 10:42:38;;;;;;;15.05;2.40;;;22.90;99.90;;;;;;5012850;28;20047;-64
2022/02/15 10:45:10;;;;;;;25.50;3.97;;;22.90;99.90;;;;;;4993585;28;20053;-64
2022/02/15 10:47:44;;;;;;;16.00;3.10;;;22.80;99.90;;;;;;5015744;28;20052;-64
2022/02/15 10:50:14;;;;;;;13.85;2.65;;;22.90;99.90;;;;;;4997791;28;20397;-64
2022/02/15 10:52:42;;;;;;;15.75;2.65;;;22.90;99.90;;;;;;5010386;28;20052;-64
2022/02/15 10:55:11;;;;;;;19.35;3.30;;;22.90;99.90;;;;;;5005013;28;20026;-64
2022/02/15 10:57:40;;;;;;;23.77;4.60;;;22.80;99.90;;;;;;5010474;28;20028;-64
2022/02/15 11:00:11;;;;;;;13.82;4.80;;;22.80;99.90;;;;;;5008079;28;20030;-64
2022/02/15 11:02:41;;;;;;;17.20;3.47;;;22.70;99.90;;;;;;5002810;28;20037;-65
2022/02/15 11:05:11;;;;;;;17.63;3.50;;;22.80;99.90;;;;;;5007739;28;20030;-65
2022/02/15 11:07:39;;;;;;;17.75;2.83;;;22.80;99.90;;;;;;5010763;28;20099;-64
2022/02/15 11:10:25;;;;;;;13.10;2.85;;;22.70;99.90;;;;;;5007590;28;20088;-65
2022/02/15 11:12:56;;;;;;;18.10;2.90;;;22.70;99.90;;;;;;5005391;28;20026;-65
2022/02/15 11:15:26;;;;;;;18.90;2.45;;;22.70;99.90;;;;;;5005039;28;20022;-66
2022/02/15 11:17:59;;;;;;;20.55;2.65;;;22.60;99.90;;;;;;5013714;28;20042;-62
2022/02/15 11:20:30;;;;;;;11.82;1.88;;;22.70;99.90;;;;;;5014744;28;20029;-63
2022/02/15 11:22:59;;;;;;;19.27;3.67;;;22.70;99.90;;;;;;5003277;28;20564;-62
2022/02/15 11:25:37;;;;;;;20.42;2.92;;;22.70;99.90;;;;;;5008047;28;20100;-63
2022/02/15 11:28:13;;;;;;;15.75;3.10;;;22.60;99.90;;;;;;5013548;28;20096;-63
2022/02/15 11:31:03;;;;;;;17.30;2.65;;;22.60;99.90;;;;;;5006080;28;20054;-65
2022/02/15 11:33:36;;;;;;;14.60;2.78;;;22.70;99.90;;;;;;5006989;28;20104;-63
2022/02/15 11:36:13;;;;;;;18.13;3.22;;;22.60;99.90;;;;;;5012641;28;20034;-64
2022/02/15 11:38:52;;;;;;;10.43;2.00;;;22.60;99.90;;;;;;5012861;28;20038;-64
2022/02/15 11:41:20;;;;;;;21.45;2.83;;;22.60;99.90;;;;;;5012632;28;20085;-64
2022/02/15 11:43:57;;;;;;;16.77;2.85;;;22.60;99.90;;;;;;5011963;28;20034;-64
2022/02/15 11:46:43;;;;;;;13.27;2.35;;;22.60;99.90;;;;;;5011340;28;20025;-64
2022/02/15 11:49:16;;;;;;;15.27;3.22;;;22.50;99.90;;;;;;5020606;28;20027;-64
2022/02/15 11:51:46;;;;;;;20.20;2.45;;;22.50;99.90;;;;;;5013918;28;20421;-64
2022/02/15 11:54:26;;;;;;;14.55;2.17;;;22.50;99.90;;;;;;5009560;28;20085;-64
2022/02/15 11:56:54;;;;;;;18.65;2.10;;;22.50;99.90;;;;;;5010514;28;20530;-64
2022/02/15 11:59:26;;;;;;;16.88;2.05;;;22.50;99.90;;;;;;5003875;28;20026;-63
2022/02/15 12:02:08;;;;;;;17.35;2.80;;;22.40;99.90;;;;;;5010990;28;20074;-64
2022/02/15 12:04:40;;;;;;;16.50;2.38;;;22.40;99.90;;;;;;5008806;28;20069;-64
2022/02/15 12:07:07;;;;;;;14.30;1.73;;;22.40;99.90;;;;;;5011111;28;20480;-64
2022/02/15 12:09:35;;;;;;;17.05;2.17;;;22.40;99.90;;;;;;5013706;28;20068;-64
2022/02/15 12:12:04;;;;;;;16.30;2.40;;;22.40;99.90;;;;;;5001658;28;20022;-63
2022/02/15 12:14:32;;;;;;;17.00;2.72;;;22.40;99.90;;;;;;5014552;28;20073;-63
2022/02/15 12:17:00;;;;;;;10.52;2.28;;;22.40;99.90;;;;;;5015264;28;20057;-64
2022/02/15 12:19:30;;;;;;;18.27;3.28;;;22.40;99.90;;;;;;5013479;28;20065;-64
2022/02/15 12:22:14;;;;;;;14.68;2.80;;;22.40;99.90;;;;;;5007621;28;20703;-64
2022/02/15 12:24:42;;;;;;;15.88;2.20;;;22.40;99.90;;;;;;5012045;28;20045;-63
2022/02/15 12:27:09;;;;;;;21.13;2.97;;;22.30;99.90;;;;;;5021652;28;20026;-63
2022/02/15 12:29:37;;;;;;;16.42;2.63;;;22.30;99.90;;;;;;5007998;28;20080;-64
2022/02/15 12:32:06;;;;;;;17.80;2.38;;;22.30;99.90;;;;;;4997743;28;20022;-64
2022/02/15 12:34:34;;;;;;;15.23;2.60;;;22.30;99.90;;;;;;4997786;28;20442;-64
2022/02/15 12:37:02;;;;;;;17.17;2.83;;;22.30;99.90;;;;;;5012750;28;20092;-63
2022/02/15 12:39:38;;;;;;;15.43;2.42;;;22.20;99.90;;;;;;5012039;28;20053;-64
2022/02/15 12:42:13;;;;;;;15.75;2.78;;;22.30;99.90;;;;;;5012259;28;20563;-63
2022/02/15 12:44:42;;;;;;;17.10;2.78;;;22.20;99.90;;;;;;5010267;28;20474;-63
2022/02/15 12:47:10;;;;;;;16.15;2.10;;;22.20;99.90;;;;;;5014126;28;20079;-64
2022/02/15 12:49:39;;;;;;;17.00;2.90;;;22.10;99.90;;;;;;5012294;28;20029;-64
2022/02/15 12:52:07;;;;;;;16.75;3.38;;;22.20;99.90;;;;;;5007763;28;20113;-63